Disclaimer

Please do not use the information listed here in-flight or in-navigation, as they are not provided to us by the airports but are provided by volunteers, so they might be outdated.

Search


Regions


Airport information page

Radio informations:
TWR/APP - 118.5 MHz

Airport informations:
Latitude: 13° 09' 11.59" N
Longitude: 030° 13' 57.63" E
Elevation: 1927 feet - 587 meters
Operating hours: 24 hour operations
Operating agency: Civil government, landing fees and diplomatic clearance may be required
Timezone: UTC+3
Fuel: N/A

Runway information:
01/19 - 9843 x 148 feet< - >3000 x 45 meters

Recent METARs:
HSOB 141600Z 03006KT CAVOK 28/M01 Q1010
HSOB 141600Z 03006KT CAVOK 28/M01 Q1010
HSOB 141700Z 03007KT CAVOK 26/M02 Q1011

Airport on the map: